createdAt,value
2018-11-28T00:00:23.812Z,99.90
2018-11-28T00:02:58.948Z,99.90
2018-11-28T00:05:32.840Z,99.90
2018-11-28T00:08:07.011Z,99.90
2018-11-28T00:10:40.758Z,99.90
2018-11-28T00:13:15.143Z,99.90
2018-11-28T00:15:49.341Z,99.90
2018-11-28T00:18:23.259Z,99.90
2018-11-28T00:20:57.185Z,99.90
2018-11-28T00:23:31.962Z,99.90
2018-11-28T00:26:06.258Z,99.90
2018-11-28T00:28:40.717Z,99.90
2018-11-28T00:31:15.076Z,99.90
2018-11-28T00:33:49.071Z,99.90
2018-11-28T00:36:22.927Z,99.90
2018-11-28T00:38:56.861Z,99.90
2018-11-28T00:41:31.033Z,99.90
2018-11-28T00:44:05.023Z,99.90
2018-11-28T00:46:38.840Z,99.90
2018-11-28T00:49:12.756Z,99.90
2018-11-28T00:51:46.792Z,99.90
2018-11-28T00:54:20.647Z,99.90
2018-11-28T00:56:54.729Z,99.90
2018-11-28T00:59:28.686Z,99.90
2018-11-28T01:02:02.643Z,99.90
2018-11-28T01:04:36.795Z,99.90
2018-11-28T01:07:11.027Z,99.90
2018-11-28T01:09:45.150Z,99.90
2018-11-28T01:12:19.179Z,99.90
2018-11-28T01:14:53.184Z,99.90
2018-11-28T01:17:27.119Z,99.90
2018-11-28T01:20:01.071Z,99.90
2018-11-28T01:22:35.371Z,99.90
2018-11-28T01:25:10.636Z,99.90
2018-11-28T01:27:44.898Z,99.90
2018-11-28T01:30:20.486Z,99.90
2018-11-28T01:32:54.122Z,99.90
2018-11-28T01:35:28.071Z,99.90
2018-11-28T01:38:02.867Z,99.90
2018-11-28T01:40:37.076Z,99.90
2018-11-28T01:43:11.199Z,99.90
2018-11-28T01:45:45.087Z,99.90
2018-11-28T01:48:19.145Z,99.90
2018-11-28T01:50:53.266Z,99.90
2018-11-28T01:53:27.187Z,99.90
2018-11-28T01:56:01.366Z,99.90
2018-11-28T01:58:35.161Z,99.90
2018-11-28T02:01:09.082Z,99.90
2018-11-28T02:03:43.031Z,99.90
2018-11-28T02:06:17.065Z,99.90
2018-11-28T02:08:50.952Z,99.90
2018-11-28T02:11:24.909Z,99.90
2018-11-28T02:16:40.301Z,99.90
2018-11-28T02:19:14.434Z,99.90
2018-11-28T02:21:48.650Z,99.90
2018-11-28T02:24:22.571Z,99.90
2018-11-28T02:26:56.281Z,99.90
2018-11-28T02:29:31.284Z,99.90
2018-11-28T02:32:05.431Z,99.90
2018-11-28T02:34:40.054Z,99.90
2018-11-28T02:37:14.088Z,99.90
2018-11-28T02:39:48.222Z,99.90
2018-11-28T02:42:22.310Z,99.90
2018-11-28T02:44:56.163Z,99.90
2018-11-28T02:47:30.030Z,99.90
2018-11-28T02:50:04.759Z,99.90
2018-11-28T02:52:38.566Z,99.90
2018-11-28T02:55:13.599Z,99.90
2018-11-28T02:57:48.472Z,99.90
2018-11-28T03:00:24.482Z,99.90
2018-11-28T03:02:58.541Z,99.90
2018-11-28T03:05:32.467Z,99.90
2018-11-28T03:08:06.676Z,99.90
2018-11-28T03:10:40.602Z,99.90
2018-11-28T03:13:14.590Z,99.90
2018-11-28T03:15:48.766Z,99.90
2018-11-28T03:18:23.308Z,99.90
2018-11-28T03:20:57.196Z,99.90
2018-11-28T03:23:31.311Z,99.90
2018-11-28T03:26:05.810Z,99.90
2018-11-28T03:28:40.044Z,99.90
2018-11-28T03:31:14.020Z,99.90
2018-11-28T03:33:48.036Z,99.90
2018-11-28T03:36:21.982Z,99.90
2018-11-28T03:38:55.974Z,99.90
2018-11-28T03:41:29.980Z,99.90
2018-11-28T03:44:04.385Z,99.90
2018-11-28T03:46:38.366Z,99.90
2018-11-28T03:49:12.386Z,99.90
2018-11-28T03:51:46.445Z,99.90
2018-11-28T03:54:20.316Z,99.90
2018-11-28T03:56:54.206Z,99.90
2018-11-28T03:59:28.117Z,99.90
2018-11-28T04:02:01.926Z,99.90
2018-11-28T04:04:37.151Z,99.90
2018-11-28T04:07:10.078Z,99.90
2018-11-28T04:09:44.094Z,99.90
2018-11-28T04:12:18.149Z,99.90
2018-11-28T04:14:52.245Z,99.90
2018-11-28T04:17:26.309Z,99.90
2018-11-28T04:20:00.143Z,99.90
2018-11-28T04:22:34.181Z,99.90
2018-11-28T04:25:09.278Z,99.90
2018-11-28T04:27:43.253Z,99.90
2018-11-28T04:30:18.999Z,99.90
2018-11-28T04:32:54.058Z,99.90
2018-11-28T04:35:28.065Z,99.90
2018-11-28T04:38:02.183Z,99.90
2018-11-28T04:40:36.128Z,99.90
2018-11-28T04:43:10.032Z,99.90
2018-11-28T04:45:44.742Z,99.90
2018-11-28T04:48:18.710Z,99.90
2018-11-28T04:50:52.730Z,99.90
2018-11-28T04:53:27.056Z,99.90
2018-11-28T04:56:01.286Z,99.90
2018-11-28T04:58:35.147Z,99.90
2018-11-28T05:01:09.052Z,99.90
2018-11-28T05:03:43.075Z,99.90
2018-11-28T05:06:30.388Z,99.90
2018-11-28T05:09:05.560Z,99.90
2018-11-28T05:11:39.469Z,99.90
2018-11-28T05:14:13.701Z,99.90
2018-11-28T05:16:48.795Z,99.90
2018-11-28T05:19:22.507Z,99.90
2018-11-28T05:21:56.835Z,99.90
2018-11-28T05:24:30.666Z,99.90
2018-11-28T05:27:04.555Z,99.90
2018-11-28T05:29:38.631Z,99.90
2018-11-28T05:32:12.541Z,99.90
2018-11-28T05:34:46.895Z,99.90
2018-11-28T05:37:20.608Z,99.90
2018-11-28T05:39:54.821Z,99.90
2018-11-28T05:42:28.755Z,99.90
2018-11-28T05:45:02.676Z,99.90
2018-11-28T05:47:37.846Z,99.90
2018-11-28T05:50:13.510Z,99.90
2018-11-28T05:52:47.575Z,99.90
2018-11-28T05:55:22.325Z,99.90
2018-11-28T05:57:56.545Z,99.90
2018-11-28T06:00:33.531Z,99.90
2018-11-28T06:03:08.538Z,99.90
2018-11-28T06:05:42.729Z,99.90
2018-11-28T06:08:16.727Z,99.90
2018-11-28T06:10:50.926Z,99.90
2018-11-28T06:13:24.941Z,99.90
2018-11-28T06:15:58.697Z,99.90
2018-11-28T06:18:32.564Z,99.90
2018-11-28T06:21:06.473Z,99.90
2018-11-28T06:23:40.507Z,99.90
2018-11-28T06:26:14.381Z,99.90
2018-11-28T06:28:49.794Z,99.90
2018-11-28T06:31:22.841Z,99.90
2018-11-28T06:33:57.558Z,99.90
2018-11-28T06:36:31.592Z,99.90
2018-11-28T06:39:08.121Z,99.90
2018-11-28T06:41:42.136Z,99.90
2018-11-28T06:44:16.475Z,99.90
2018-11-28T06:46:50.330Z,99.90
2018-11-28T06:49:24.726Z,99.90
2018-11-28T06:51:59.422Z,99.90
2018-11-28T06:54:33.536Z,99.90
2018-11-28T06:57:07.660Z,99.90
2018-11-28T06:59:41.843Z,99.90
2018-11-28T07:02:15.757Z,99.90
2018-11-28T07:04:49.809Z,99.90
2018-11-28T07:07:23.936Z,99.90
2018-11-28T07:09:57.987Z,99.90
2018-11-28T07:12:32.029Z,99.90
2018-11-28T07:15:08.376Z,99.90
2018-11-28T07:17:42.910Z,99.90
2018-11-28T07:20:17.166Z,99.90
2018-11-28T07:22:50.935Z,99.90
2018-11-28T07:25:24.917Z,99.90
2018-11-28T07:27:58.839Z,99.90
2018-11-28T07:30:37.543Z,99.90
2018-11-28T07:33:07.040Z,99.90
2018-11-28T07:35:41.487Z,99.90
2018-11-28T07:38:15.185Z,99.90
2018-11-28T07:40:49.312Z,99.90
2018-11-28T07:43:23.389Z,99.90
2018-11-28T07:45:57.240Z,99.90
2018-11-28T07:48:31.314Z,99.90
2018-11-28T07:51:05.769Z,99.90
2018-11-28T07:53:39.886Z,99.90
2018-11-28T07:56:13.740Z,99.90
2018-11-28T07:58:47.770Z,99.90
2018-11-28T08:01:21.817Z,99.90
2018-11-28T08:03:55.687Z,99.90
2018-11-28T08:06:29.621Z,99.90
2018-11-28T08:09:04.805Z,99.90
2018-11-28T08:11:38.673Z,99.90
2018-11-28T08:14:12.817Z,99.90
2018-11-28T08:16:46.710Z,99.90
2018-11-28T08:19:23.989Z,99.90
2018-11-28T08:21:54.881Z,99.90
2018-11-28T08:24:28.879Z,99.90
2018-11-28T08:27:02.892Z,99.90
2018-11-28T08:29:36.805Z,99.90
2018-11-28T08:32:10.811Z,99.90
2018-11-28T08:34:44.670Z,99.90
2018-11-28T08:37:18.677Z,99.90
2018-11-28T08:39:52.770Z,99.90
2018-11-28T08:42:26.900Z,99.90
2018-11-28T08:45:00.841Z,99.90
2018-11-28T08:47:34.731Z,99.90
2018-11-28T08:50:12.312Z,99.90
2018-11-28T08:52:46.533Z,99.90
2018-11-28T08:55:27.103Z,99.90
2018-11-28T08:58:02.058Z,99.90
2018-11-28T09:00:36.027Z,99.60
2018-11-28T09:03:10.276Z,99.70
2018-11-28T09:05:44.409Z,99.30
2018-11-28T09:08:18.442Z,99.40
2018-11-28T09:10:52.631Z,99.50
2018-11-28T09:13:26.557Z,99.30
2018-11-28T09:16:00.636Z,98.90
2018-11-28T09:18:34.538Z,98.80
2018-11-28T09:21:08.537Z,99.00
2018-11-28T09:23:42.650Z,99.10
2018-11-28T09:26:18.840Z,99.00
2018-11-28T09:28:52.567Z,98.80
2018-11-28T09:31:26.483Z,98.60
2018-11-28T09:34:00.417Z,98.60
2018-11-28T09:36:34.455Z,98.40
2018-11-28T09:39:08.296Z,98.10
2018-11-28T09:41:42.447Z,97.60
2018-11-28T09:44:16.306Z,97.50
2018-11-28T09:46:50.121Z,97.30
2018-11-28T09:49:23.902Z,97.30
2018-11-28T09:51:57.861Z,97.00
2018-11-28T09:54:31.721Z,97.00
2018-11-28T09:57:06.313Z,96.60
2018-11-28T09:59:40.422Z,96.10
2018-11-28T10:02:14.600Z,95.70
2018-11-28T10:04:48.596Z,95.20
2018-11-28T10:07:22.703Z,95.30
2018-11-28T10:09:56.776Z,95.00
2018-11-28T10:12:30.938Z,94.90
2018-11-28T10:15:08.417Z,95.00
2018-11-28T10:17:42.700Z,95.10
2018-11-28T10:20:17.728Z,95.20
2018-11-28T10:22:52.611Z,95.40
2018-11-28T10:25:26.916Z,94.70
2018-11-28T10:28:02.467Z,95.00
2018-11-28T10:30:37.496Z,95.10
2018-11-28T10:33:13.019Z,95.20
2018-11-28T10:35:47.271Z,94.80
2018-11-28T10:38:21.180Z,94.70
2018-11-28T10:40:55.159Z,94.60
2018-11-28T10:43:29.181Z,94.50
2018-11-28T10:46:03.504Z,94.40
2018-11-28T10:48:37.556Z,94.30
2018-11-28T10:51:11.708Z,94.30
2018-11-28T10:53:45.792Z,93.90
2018-11-28T10:56:20.300Z,94.00
2018-11-28T10:58:54.299Z,93.50
2018-11-28T11:01:28.453Z,93.00
2018-11-28T11:04:07.998Z,93.20
2018-11-28T11:06:47.756Z,93.10
2018-11-28T11:09:27.310Z,92.80
2018-11-28T11:12:05.507Z,93.10
2018-11-28T11:14:48.133Z,92.90
2018-11-28T11:17:22.193Z,92.20
2018-11-28T11:19:56.143Z,91.90
2018-11-28T11:22:30.242Z,91.80
2018-11-28T11:25:05.079Z,91.80
2018-11-28T11:27:39.127Z,91.60
2018-11-28T11:30:13.243Z,91.50
2018-11-28T11:32:47.336Z,91.50
2018-11-28T11:35:21.484Z,91.80
2018-11-28T11:37:55.573Z,91.50
2018-11-28T11:40:29.630Z,91.50
2018-11-28T11:43:04.087Z,91.30
2018-11-28T11:45:39.595Z,92.00
2018-11-28T11:48:12.992Z,91.70
2018-11-28T11:50:46.312Z,92.00
2018-11-28T11:53:20.293Z,91.80
2018-11-28T11:55:54.546Z,91.80
2018-11-28T11:58:28.398Z,91.70
2018-11-28T12:01:02.502Z,92.10
2018-11-28T12:03:36.462Z,91.80
2018-11-28T12:06:10.594Z,91.50
2018-11-28T12:08:44.608Z,91.60
2018-11-28T12:11:18.427Z,91.70
2018-11-28T12:13:52.541Z,91.80
2018-11-28T12:16:27.229Z,92.00
2018-11-28T12:19:01.143Z,91.90
2018-11-28T12:21:35.238Z,91.80
2018-11-28T12:24:09.281Z,91.30
2018-11-28T12:26:43.129Z,91.60
2018-11-28T12:29:17.311Z,91.30
2018-11-28T12:31:51.112Z,91.20
2018-11-28T12:34:25.184Z,91.00
2018-11-28T12:36:59.654Z,90.80
2018-11-28T12:39:34.070Z,90.70
2018-11-28T12:42:07.949Z,90.90
2018-11-28T12:44:41.898Z,91.10
2018-11-28T12:47:15.872Z,91.00
2018-11-28T12:49:50.725Z,91.10
2018-11-28T12:52:23.982Z,91.00
2018-11-28T12:54:57.816Z,91.20
2018-11-28T12:57:31.699Z,91.50
2018-11-28T13:00:08.956Z,91.40
2018-11-28T13:02:42.933Z,91.20
2018-11-28T13:05:18.226Z,91.30
2018-11-28T13:07:52.252Z,91.80
2018-11-28T13:10:28.711Z,91.50
2018-11-28T13:13:03.117Z,91.90
2018-11-28T13:15:37.841Z,92.10
2018-11-28T13:18:12.042Z,92.10
2018-11-28T13:20:46.133Z,92.20
2018-11-28T13:23:20.265Z,92.40
2018-11-28T13:25:54.012Z,92.50
2018-11-28T13:28:28.082Z,92.50
2018-11-28T13:31:01.982Z,92.40
2018-11-28T13:33:36.217Z,92.70
2018-11-28T13:36:10.280Z,92.90
2018-11-28T13:38:44.239Z,93.00
2018-11-28T13:41:18.587Z,93.20
2018-11-28T13:43:52.709Z,93.30
2018-11-28T13:46:27.637Z,93.30
2018-11-28T13:49:01.641Z,93.60
2018-11-28T13:51:35.800Z,93.50
2018-11-28T13:54:21.065Z,93.80
2018-11-28T13:57:02.069Z,94.00
2018-11-28T13:59:17.672Z,93.60
2018-11-28T14:01:51.840Z,93.70
2018-11-28T14:04:25.841Z,93.80
2018-11-28T14:06:59.767Z,93.80
2018-11-28T14:09:34.135Z,93.90
2018-11-28T14:12:08.022Z,94.20
2018-11-28T14:14:42.028Z,94.10
2018-11-28T14:17:16.005Z,94.30
2018-11-28T14:19:49.968Z,94.50
2018-11-28T14:22:24.047Z,94.40
2018-11-28T14:24:58.313Z,94.60
2018-11-28T14:27:32.385Z,94.80
2018-11-28T14:30:10.729Z,94.70
2018-11-28T14:32:45.009Z,94.70
2018-11-28T14:35:19.878Z,94.70
2018-11-28T14:37:53.967Z,94.60
2018-11-28T14:40:28.359Z,94.60
2018-11-28T14:43:02.721Z,94.50
2018-11-28T14:45:37.177Z,94.70
2018-11-28T14:48:11.154Z,94.60
2018-11-28T14:50:45.198Z,94.50
2018-11-28T14:53:19.301Z,94.50
2018-11-28T14:55:53.062Z,94.60
2018-11-28T14:58:27.638Z,94.60
2018-11-28T15:03:47.107Z,94.60
2018-11-28T15:06:45.533Z,94.40
2018-11-28T15:09:25.228Z,94.20
2018-11-28T15:11:59.355Z,94.20
2018-11-28T15:14:33.340Z,94.50
2018-11-28T15:17:07.648Z,94.10
2018-11-28T15:19:41.681Z,94.20
2018-11-28T15:22:15.742Z,94.50
2018-11-28T15:24:49.871Z,94.80
2018-11-28T15:27:24.186Z,95.00
2018-11-28T15:29:58.347Z,95.00
2018-11-28T15:32:32.301Z,95.20
2018-11-28T15:35:06.685Z,95.40
2018-11-28T15:37:40.967Z,95.30
2018-11-28T15:40:15.050Z,95.70
2018-11-28T15:42:49.041Z,95.70
2018-11-28T15:45:23.298Z,95.80
2018-11-28T15:47:57.803Z,95.80
2018-11-28T15:50:32.251Z,95.70
2018-11-28T15:53:06.437Z,95.80
2018-11-28T15:55:40.673Z,95.70
2018-11-28T15:58:14.772Z,96.10
2018-11-28T16:00:48.968Z,96.00
2018-11-28T16:03:23.066Z,96.20
2018-11-28T16:05:57.152Z,96.10
2018-11-28T16:08:31.032Z,96.10
2018-11-28T16:11:09.091Z,96.30
2018-11-28T16:13:43.321Z,96.30
2018-11-28T16:16:17.693Z,96.40
2018-11-28T16:18:51.840Z,96.40
2018-11-28T16:21:25.946Z,96.50
2018-11-28T16:23:59.958Z,96.40
2018-11-28T16:26:34.182Z,96.40
2018-11-28T16:29:08.723Z,96.30
2018-11-28T16:31:42.603Z,96.30
2018-11-28T16:34:16.826Z,96.20
2018-11-28T16:36:51.075Z,96.30
2018-11-28T16:39:25.269Z,96.20
2018-11-28T16:41:59.591Z,96.20
2018-11-28T16:44:33.413Z,96.30
2018-11-28T16:47:07.952Z,96.40
2018-11-28T16:49:41.851Z,96.50
2018-11-28T16:52:15.816Z,96.60
2018-11-28T16:54:50.082Z,96.30
2018-11-28T16:57:24.265Z,96.30
2018-11-28T16:59:58.593Z,96.30
2018-11-28T17:02:32.924Z,96.50
2018-11-28T17:05:12.589Z,96.30
2018-11-28T17:07:47.434Z,96.30
2018-11-28T17:10:23.952Z,96.30
2018-11-28T17:12:58.733Z,96.50
2018-11-28T17:15:32.934Z,96.40
2018-11-28T17:18:06.990Z,96.50
2018-11-28T17:20:42.209Z,96.50
2018-11-28T17:23:16.264Z,96.60
2018-11-28T17:25:50.538Z,96.60
2018-11-28T17:28:25.007Z,96.40
2018-11-28T17:30:59.663Z,96.90
2018-11-28T17:33:33.711Z,96.80
2018-11-28T17:36:08.002Z,96.70
2018-11-28T17:38:41.931Z,96.70
2018-11-28T17:41:16.017Z,96.90
2018-11-28T17:43:51.514Z,96.70
2018-11-28T17:46:24.795Z,96.70
2018-11-28T17:48:58.950Z,96.80
2018-11-28T17:51:33.114Z,96.70
2018-11-28T17:54:07.361Z,96.80
2018-11-28T17:56:41.695Z,96.90
2018-11-28T17:59:15.624Z,96.80
2018-11-28T18:01:49.851Z,96.90
2018-11-28T18:04:23.780Z,96.90
2018-11-28T18:06:58.048Z,96.80
2018-11-28T18:09:32.140Z,96.80
2018-11-28T18:12:06.517Z,96.70
2018-11-28T18:14:40.670Z,96.90
2018-11-28T18:17:14.890Z,96.60
2018-11-28T18:19:48.971Z,96.60
2018-11-28T18:22:23.381Z,96.40
2018-11-28T18:24:57.549Z,96.50
2018-11-28T18:27:31.444Z,96.50
2018-11-28T18:30:07.442Z,96.60
2018-11-28T18:32:42.027Z,96.50
2018-11-28T18:35:16.229Z,96.50
2018-11-28T18:37:50.535Z,96.70
2018-11-28T18:40:24.792Z,96.70
2018-11-28T18:42:59.180Z,96.80
2018-11-28T18:45:34.660Z,96.50
2018-11-28T18:48:08.991Z,96.70
2018-11-28T18:50:43.066Z,96.60
2018-11-28T18:53:17.207Z,96.60
2018-11-28T18:55:51.457Z,96.50
2018-11-28T18:58:25.714Z,96.60
2018-11-28T19:01:00.050Z,96.60
2018-11-28T19:03:34.207Z,96.50
2018-11-28T19:06:08.865Z,96.50
2018-11-28T19:08:43.291Z,96.50
2018-11-28T19:11:17.368Z,96.50
2018-11-28T19:13:52.039Z,96.70
2018-11-28T19:16:26.486Z,96.50
2018-11-28T19:19:00.530Z,96.50
2018-11-28T19:21:34.795Z,96.40
2018-11-28T19:24:09.364Z,96.60
2018-11-28T19:26:43.856Z,96.70
2018-11-28T19:29:17.953Z,96.70
2018-11-28T19:31:52.126Z,96.70
2018-11-28T19:34:26.216Z,96.80
2018-11-28T19:37:00.655Z,96.90
2018-11-28T19:39:34.683Z,97.10
2018-11-28T19:42:10.150Z,97.60
2018-11-28T19:44:44.253Z,98.00
2018-11-28T19:47:18.521Z,98.50
2018-11-28T19:49:53.179Z,98.60
2018-11-28T19:52:27.137Z,99.30
2018-11-28T19:55:01.782Z,99.30
2018-11-28T19:57:36.060Z,99.90
2018-11-28T20:00:15.411Z,99.90
2018-11-28T20:02:49.894Z,99.90
2018-11-28T20:05:24.059Z,99.90
2018-11-28T20:07:58.267Z,99.90
2018-11-28T20:10:32.961Z,99.90
2018-11-28T20:13:08.512Z,99.90
2018-11-28T20:15:44.906Z,99.90
2018-11-28T20:18:19.466Z,99.90
2018-11-28T20:20:54.080Z,99.90
2018-11-28T20:23:28.450Z,99.90
2018-11-28T20:26:03.397Z,99.90
2018-11-28T20:28:37.740Z,99.90
2018-11-28T20:31:12.157Z,99.90
2018-11-28T20:33:46.561Z,99.90
2018-11-28T20:36:20.939Z,99.90
2018-11-28T20:38:55.261Z,99.90
2018-11-28T20:41:29.440Z,99.90
2018-11-28T20:44:04.072Z,99.90
2018-11-28T20:46:38.622Z,99.90
2018-11-28T20:49:12.884Z,99.90
2018-11-28T20:51:47.359Z,99.90
2018-11-28T20:54:22.091Z,99.90
2018-11-28T20:56:56.378Z,99.90
2018-11-28T20:59:30.657Z,99.90
2018-11-28T21:02:05.286Z,99.90
2018-11-28T21:04:39.907Z,99.90
2018-11-28T21:07:14.057Z,99.90
2018-11-28T21:09:54.038Z,99.90
2018-11-28T21:12:28.277Z,99.90
2018-11-28T21:15:02.845Z,99.90
2018-11-28T21:17:37.178Z,99.90
2018-11-28T21:20:15.630Z,99.90
2018-11-28T21:22:52.755Z,99.90
2018-11-28T21:25:27.124Z,99.90
2018-11-28T21:28:01.265Z,99.90
2018-11-28T21:30:35.859Z,99.90
2018-11-28T21:33:11.375Z,99.90
2018-11-28T21:35:48.128Z,99.90
2018-11-28T21:38:22.056Z,99.90
2018-11-28T21:40:56.731Z,99.90
2018-11-28T21:43:30.950Z,99.90
2018-11-28T21:46:05.467Z,99.90
2018-11-28T21:48:39.450Z,99.90
2018-11-28T21:51:13.566Z,99.90
2018-11-28T21:53:47.840Z,99.90
2018-11-28T21:56:21.969Z,99.90
2018-11-28T21:58:56.025Z,99.90
2018-11-28T22:01:30.421Z,99.90
2018-11-28T22:04:04.819Z,99.90
2018-11-28T22:06:38.694Z,99.90
2018-11-28T22:09:13.207Z,99.90
2018-11-28T22:11:46.999Z,99.90
2018-11-28T22:14:21.255Z,99.90
2018-11-28T22:16:55.216Z,99.90
2018-11-28T22:19:29.326Z,99.90
2018-11-28T22:22:03.479Z,99.90
2018-11-28T22:24:37.639Z,99.90
2018-11-28T22:27:12.083Z,99.90
2018-11-28T22:29:46.290Z,99.90
2018-11-28T22:32:20.329Z,99.90
2018-11-28T22:34:54.479Z,99.90
2018-11-28T22:37:28.555Z,99.90
2018-11-28T22:40:02.538Z,99.90
2018-11-28T22:42:36.787Z,99.90
2018-11-28T22:45:12.579Z,99.90
2018-11-28T22:47:46.425Z,99.90
2018-11-28T22:50:20.460Z,99.90
2018-11-28T22:52:54.627Z,99.90
2018-11-28T22:55:28.692Z,99.90
2018-11-28T22:58:02.821Z,99.90
2018-11-28T23:00:43.129Z,99.90
2018-11-28T23:03:17.231Z,99.90
2018-11-28T23:05:51.707Z,99.90
2018-11-28T23:08:25.792Z,99.90
2018-11-28T23:10:59.810Z,99.90
2018-11-28T23:13:34.165Z,99.90
2018-11-28T23:16:08.412Z,99.90
2018-11-28T23:18:42.874Z,99.90
2018-11-28T23:21:16.759Z,99.90
2018-11-28T23:23:50.734Z,99.90
2018-11-28T23:26:24.692Z,99.90
2018-11-28T23:28:58.743Z,99.90
2018-11-28T23:31:33.010Z,99.90
2018-11-28T23:34:07.179Z,99.90
2018-11-28T23:36:41.169Z,99.90
2018-11-28T23:39:15.540Z,99.90
2018-11-28T23:41:49.932Z,99.90
2018-11-28T23:44:23.830Z,99.90
2018-11-28T23:46:57.895Z,99.90
2018-11-28T23:49:31.684Z,99.90
2018-11-28T23:52:05.899Z,99.90
2018-11-28T23:54:39.970Z,99.90
2018-11-28T23:57:13.970Z,99.90
2018-11-28T23:59:47.946Z,99.90
